sensor_id;sensor_type;location;lat;lon;timestamp;pressure;altitude;pressure_sealevel;temperature;humidity
7824;BME280;3957;48.61947800;9.05303100;2023-03-31T00:00:14;95484.50;;;9.16;98.26
7824;BME280;3957;48.61947800;9.05303100;2023-03-31T00:01:15;95483.19;;;9.32;97.19
7824;BME280;3957;48.61947800;9.05303100;2023-03-31T00:02:15;95490.59;;;9.36;96.68
7824;BME280;3957;48.61947800;9.05303100;2023-03-31T00:03:16;95483.63;;;9.22;97.95
7824;BME280;3957;48.61947800;9.05303100;2023-03-31T00:04:23;95488.41;;;9.07;99.17
7824;BME280;3957;48.61947800;9.05303100;2023-03-31T00:05:25;95481.25;;;9.00;98.91
7824;BME280;3957;48.61947800;9.05303100;2023-03-31T00:06:25;95481.84;;;8.96;99.97
7824;BME280;3957;48.61947800;9.05303100;2023-03-31T00:07:26;95483.13;;;8.80;100.00
7824;BME280;3957;48.61947800;9.05303100;2023-03-31T00:08:28;95477.16;;;8.78;100.00
7824;BME280;3957;48.61947800;9.05303100;2023-03-31T00:09:34;95478.81;;;8.72;100.00
7824;BME280;3957;48.61947800;9.05303100;2023-03-31T00:10:34;95477.38;;;8.76;100.00
7824;BME280;3957;48.61947800;9.05303100;2023-03-31T00:11:35;95479.81;;;8.91;100.00
7824;BME280;3957;48.61947800;9.05303100;2023-03-31T00:12:36;95481.81;;;9.16;99.46
7824;BME280;3957;48.61947800;9.05303100;2023-03-31T00:13:37;95480.84;;;8.97;99.55
7824;BME280;3957;48.61947800;9.05303100;2023-03-31T00:14:37;95481.44;;;8.99;99.15
7824;BME280;3957;48.61947800;9.05303100;2023-03-31T00:15:38;95474.84;;;9.01;99.40
7824;BME280;3957;48.61947800;9.05303100;2023-03-31T00:16:38;95479.53;;;9.19;98.40
7824;BME280;3957;48.61947800;9.05303100;2023-03-31T00:17:39;95474.03;;;9.08;98.97
7824;BME280;3957;48.61947800;9.05303100;2023-03-31T00:18:39;95470.38;;;8.95;99.60
7824;BME280;3957;48.61947800;9.05303100;2023-03-31T00:19:46;95467.72;;;8.89;100.00
7824;BME280;3957;48.61947800;9.05303100;2023-03-31T00:20:48;95466.69;;;8.96;100.00
7824;BME280;3957;48.61947800;9.05303100;2023-03-31T00:21:52;95463.19;;;8.89;100.00
7824;BME280;3957;48.61947800;9.05303100;2023-03-31T00:22:53;95462.81;;;8.79;100.00
7824;BME280;3957;48.61947800;9.05303100;2023-03-31T00:24:01;95456.66;;;8.72;100.00
7824;BME280;3957;48.61947800;9.05303100;2023-03-31T00:25:02;95458.28;;;8.86;100.00
7824;BME280;3957;48.61947800;9.05303100;2023-03-31T00:26:02;95453.94;;;8.92;100.00
7824;BME280;3957;48.61947800;9.05303100;2023-03-31T00:27:04;95457.22;;;9.00;99.88
7824;BME280;3957;48.61947800;9.05303100;2023-03-31T00:28:04;95454.16;;;8.97;99.96
7824;BME280;3957;48.61947800;9.05303100;2023-03-31T00:29:06;95456.00;;;8.96;100.00
7824;BME280;3957;48.61947800;9.05303100;2023-03-31T00:30:09;95460.50;;;9.02;100.00
7824;BME280;3957;48.61947800;9.05303100;2023-03-31T00:31:09;95458.22;;;9.13;98.73
7824;BME280;3957;48.61947800;9.05303100;2023-03-31T00:32:10;95451.38;;;9.24;98.51
7824;BME280;3957;48.61947800;9.05303100;2023-03-31T00:33:11;95456.28;;;9.33;96.84
7824;BME280;3957;48.61947800;9.05303100;2023-03-31T00:34:12;95459.59;;;9.22;98.34
7824;BME280;3957;48.61947800;9.05303100;2023-03-31T00:35:12;95457.16;;;9.14;98.75
7824;BME280;3957;48.61947800;9.05303100;2023-03-31T00:36:13;95454.69;;;9.19;98.49
7824;BME280;3957;48.61947800;9.05303100;2023-03-31T00:37:17;95446.91;;;9.11;98.46
7824;BME280;3957;48.61947800;9.05303100;2023-03-31T00:38:18;95452.00;;;9.32;97.66
7824;BME280;3957;48.61947800;9.05303100;2023-03-31T00:39:21;95438.63;;;9.32;97.12
7824;BME280;3957;48.61947800;9.05303100;2023-03-31T00:40:23;95438.25;;;9.22;97.84
7824;BME280;3957;48.61947800;9.05303100;2023-03-31T00:41:26;95438.09;;;9.17;99.04
7824;BME280;3957;48.61947800;9.05303100;2023-03-31T00:42:26;95437.88;;;9.18;99.12
7824;BME280;3957;48.61947800;9.05303100;2023-03-31T00:43:31;95437.50;;;9.01;99.68
7824;BME280;3957;48.61947800;9.05303100;2023-03-31T00:44:31;95438.72;;;9.06;99.36
7824;BME280;3957;48.61947800;9.05303100;2023-03-31T00:45:33;95442.00;;;9.08;99.43
7824;BME280;3957;48.61947800;9.05303100;2023-03-31T00:46:40;95435.22;;;9.18;98.88
7824;BME280;3957;48.61947800;9.05303100;2023-03-31T00:48:56;95434.69;;;9.42;97.26
7824;BME280;3957;48.61947800;9.05303100;2023-03-31T00:49:57;95424.84;;;9.42;96.57
7824;BME280;3957;48.61947800;9.05303100;2023-03-31T00:50:58;95433.66;;;9.43;96.95
7824;BME280;3957;48.61947800;9.05303100;2023-03-31T00:53:16;95414.47;;;9.59;94.36
7824;BME280;3957;48.61947800;9.05303100;2023-03-31T00:54:18;95417.50;;;9.69;93.73
7824;BME280;3957;48.61947800;9.05303100;2023-03-31T00:55:24;95407.44;;;9.65;94.08
7824;BME280;3957;48.61947800;9.05303100;2023-03-31T00:56:31;95410.22;;;9.51;94.65
7824;BME280;3957;48.61947800;9.05303100;2023-03-31T00:57:35;95408.06;;;9.67;93.82
7824;BME280;3957;48.61947800;9.05303100;2023-03-31T00:58:38;95401.03;;;9.73;93.49
7824;BME280;3957;48.61947800;9.05303100;2023-03-31T00:59:46;95402.63;;;9.80;92.22
7824;BME280;3957;48.61947800;9.05303100;2023-03-31T01:00:48;95394.81;;;9.79;92.39
7824;BME280;3957;48.61947800;9.05303100;2023-03-31T01:01:52;95400.41;;;9.70;93.27
7824;BME280;3957;48.61947800;9.05303100;2023-03-31T01:02:56;95399.56;;;9.77;93.22
7824;BME280;3957;48.61947800;9.05303100;2023-03-31T01:03:57;95398.88;;;9.88;91.95
7824;BME280;3957;48.61947800;9.05303100;2023-03-31T01:04:59;95396.59;;;9.92;91.32
7824;BME280;3957;48.61947800;9.05303100;2023-03-31T01:06:03;95387.75;;;9.91;91.76
7824;BME280;3957;48.61947800;9.05303100;2023-03-31T01:07:15;95387.78;;;9.84;91.31
7824;BME280;3957;48.61947800;9.05303100;2023-03-31T01:08:18;95384.94;;;9.86;91.52
7824;BME280;3957;48.61947800;9.05303100;2023-03-31T01:09:23;95385.13;;;9.84;91.70
7824;BME280;3957;48.61947800;9.05303100;2023-03-31T01:10:26;95386.28;;;9.95;89.80
7824;BME280;3957;48.61947800;9.05303100;2023-03-31T01:11:27;95383.59;;;9.95;89.88
7824;BME280;3957;48.61947800;9.05303100;2023-03-31T01:12:32;95376.63;;;9.94;90.71
7824;BME280;3957;48.61947800;9.05303100;2023-03-31T01:13:38;95372.59;;;9.85;91.21
7824;BME280;3957;48.61947800;9.05303100;2023-03-31T01:14:42;95369.47;;;9.88;90.62
7824;BME280;3957;48.61947800;9.05303100;2023-03-31T01:15:44;95374.81;;;9.88;90.62
7824;BME280;3957;48.61947800;9.05303100;2023-03-31T01:16:45;95376.56;;;9.76;90.88
7824;BME280;3957;48.61947800;9.05303100;2023-03-31T01:17:45;95382.66;;;9.83;91.01
7824;BME280;3957;48.61947800;9.05303100;2023-03-31T01:18:49;95378.31;;;9.88;89.50
7824;BME280;3957;48.61947800;9.05303100;2023-03-31T01:21:41;95380.34;;;9.93;89.81
7824;BME280;3957;48.61947800;9.05303100;2023-03-31T01:23:11;95386.72;;;9.92;89.72
7824;BME280;3957;48.61947800;9.05303100;2023-03-31T01:24:48;95384.34;;;9.77;91.85
7824;BME280;3957;48.61947800;9.05303100;2023-03-31T01:28:36;95390.13;;;9.74;92.25
7824;BME280;3957;48.61947800;9.05303100;2023-03-31T01:32:46;95381.94;;;9.69;94.53
7824;BME280;3957;48.61947800;9.05303100;2023-03-31T01:34:22;95380.75;;;9.58;96.44
7824;BME280;3957;48.61947800;9.05303100;2023-03-31T01:35:32;95387.88;;;9.39;98.14
7824;BME280;3957;48.61947800;9.05303100;2023-03-31T01:40:11;95389.47;;;9.47;97.74
7824;BME280;3957;48.61947800;9.05303100;2023-03-31T01:41:25;95381.28;;;9.42;96.70
7824;BME280;3957;48.61947800;9.05303100;2023-03-31T01:47:57;95387.03;;;8.93;100.00
7824;BME280;3957;48.61947800;9.05303100;2023-03-31T01:49:30;95399.38;;;8.88;100.00
7824;BME280;3957;48.61947800;9.05303100;2023-03-31T01:51:50;95385.69;;;8.71;100.00
7824;BME280;3957;48.61947800;9.05303100;2023-03-31T01:56:07;95394.75;;;8.56;100.00
7824;BME280;3957;48.61947800;9.05303100;2023-03-31T01:58:25;95390.41;;;8.42;100.00
7824;BME280;3957;48.61947800;9.05303100;2023-03-31T01:59:37;95381.63;;;8.34;100.00
7824;BME280;3957;48.61947800;9.05303100;2023-03-31T02:00:44;95377.94;;;8.22;100.00
7824;BME280;3957;48.61947800;9.05303100;2023-03-31T02:02:16;95391.06;;;8.24;100.00
7824;BME280;3957;48.61947800;9.05303100;2023-03-31T02:03:20;95388.00;;;8.13;100.00
7824;BME280;3957;48.61947800;9.05303100;2023-03-31T02:04:29;95396.81;;;8.14;100.00
7824;BME280;3957;48.61947800;9.05303100;2023-03-31T02:05:36;95382.84;;;8.18;100.00
7824;BME280;3957;48.61947800;9.05303100;2023-03-31T02:06:41;95386.56;;;8.17;100.00
7824;BME280;3957;48.61947800;9.05303100;2023-03-31T02:07:53;95391.47;;;8.07;100.00
7824;BME280;3957;48.61947800;9.05303100;2023-03-31T02:08:58;95376.72;;;8.05;100.00
7824;BME280;3957;48.61947800;9.05303100;2023-03-31T02:10:05;95381.66;;;8.01;100.00
7824;BME280;3957;48.61947800;9.05303100;2023-03-31T02:11:07;95381.22;;;7.97;100.00
7824;BME280;3957;48.61947800;9.05303100;2023-03-31T02:12:10;95378.75;;;7.96;100.00
7824;BME280;3957;48.61947800;9.05303100;2023-03-31T02:13:12;95371.78;;;7.88;100.00
7824;BME280;3957;48.61947800;9.05303100;2023-03-31T02:14:19;95378.34;;;7.86;100.00
7824;BME280;3957;48.61947800;9.05303100;2023-03-31T02:15:25;95368.09;;;7.82;100.00
7824;BME280;3957;48.61947800;9.05303100;2023-03-31T02:16:29;95374.25;;;7.76;100.00
7824;BME280;3957;48.61947800;9.05303100;2023-03-31T02:17:31;95368.09;;;7.76;100.00
7824;BME280;3957;48.61947800;9.05303100;2023-03-31T02:18:33;95358.03;;;7.64;100.00
7824;BME280;3957;48.61947800;9.05303100;2023-03-31T02:19:39;95353.53;;;7.65;100.00
7824;BME280;3957;48.61947800;9.05303100;2023-03-31T02:20:41;95343.91;;;7.57;100.00
7824;BME280;3957;48.61947800;9.05303100;2023-03-31T02:21:46;95343.09;;;7.57;100.00
7824;BME280;3957;48.61947800;9.05303100;2023-03-31T02:22:52;95334.91;;;7.52;100.00
7824;BME280;3957;48.61947800;9.05303100;2023-03-31T02:23:54;95331.00;;;7.47;100.00
7824;BME280;3957;48.61947800;9.05303100;2023-03-31T02:24:54;95324.66;;;7.55;100.00
7824;BME280;3957;48.61947800;9.05303100;2023-03-31T02:26:01;95327.50;;;7.47;100.00
7824;BME280;3957;48.61947800;9.05303100;2023-03-31T02:28:20;95314.22;;;7.54;100.00
7824;BME280;3957;48.61947800;9.05303100;2023-03-31T02:29:21;95320.38;;;7.54;100.00
7824;BME280;3957;48.61947800;9.05303100;2023-03-31T02:30:27;95315.03;;;7.54;100.00
7824;BME280;3957;48.61947800;9.05303100;2023-03-31T02:31:53;95307.44;;;7.51;100.00
7824;BME280;3957;48.61947800;9.05303100;2023-03-31T02:32:56;95300.88;;;7.47;100.00
7824;BME280;3957;48.61947800;9.05303100;2023-03-31T02:33:57;95290.84;;;7.36;100.00
7824;BME280;3957;48.61947800;9.05303100;2023-03-31T02:34:58;95282.03;;;7.28;100.00
7824;BME280;3957;48.61947800;9.05303100;2023-03-31T02:35:59;95270.19;;;7.31;100.00
7824;BME280;3957;48.61947800;9.05303100;2023-03-31T02:37:00;95259.31;;;7.26;100.00
7824;BME280;3957;48.61947800;9.05303100;2023-03-31T02:38:00;95248.28;;;7.22;100.00
7824;BME280;3957;48.61947800;9.05303100;2023-03-31T02:39:12;95247.03;;;7.11;100.00
7824;BME280;3957;48.61947800;9.05303100;2023-03-31T02:40:19;95245.81;;;7.07;100.00
7824;BME280;3957;48.61947800;9.05303100;2023-03-31T02:41:21;95237.19;;;7.05;100.00
7824;BME280;3957;48.61947800;9.05303100;2023-03-31T02:42:23;95234.13;;;6.95;100.00
7824;BME280;3957;48.61947800;9.05303100;2023-03-31T02:43:25;95232.69;;;6.92;100.00
7824;BME280;3957;48.61947800;9.05303100;2023-03-31T02:44:27;95230.00;;;6.86;100.00
7824;BME280;3957;48.61947800;9.05303100;2023-03-31T02:45:45;95239.19;;;6.83;100.00
7824;BME280;3957;48.61947800;9.05303100;2023-03-31T02:46:47;95237.78;;;6.87;100.00
7824;BME280;3957;48.61947800;9.05303100;2023-03-31T02:47:47;95232.25;;;6.95;100.00
7824;BME280;3957;48.61947800;9.05303100;2023-03-31T02:48:49;95232.50;;;7.01;100.00
7824;BME280;3957;48.61947800;9.05303100;2023-03-31T02:49:54;95230.84;;;7.00;100.00
7824;BME280;3957;48.61947800;9.05303100;2023-03-31T02:51:13;95225.09;;;6.83;100.00
7824;BME280;3957;48.61947800;9.05303100;2023-03-31T02:56:06;95205.81;;;6.74;100.00
7824;BME280;3957;48.61947800;9.05303100;2023-03-31T02:57:35;95201.13;;;6.69;100.00
7824;BME280;3957;48.61947800;9.05303100;2023-03-31T03:01:26;95193.94;;;6.56;100.00
7824;BME280;3957;48.61947800;9.05303100;2023-03-31T03:04:17;95194.34;;;6.53;100.00
7824;BME280;3957;48.61947800;9.05303100;2023-03-31T03:10:05;95178.16;;;6.41;100.00
7824;BME280;3957;48.61947800;9.05303100;2023-03-31T03:11:23;95179.81;;;6.42;100.00
7824;BME280;3957;48.61947800;9.05303100;2023-03-31T03:13:54;95175.06;;;6.24;100.00
7824;BME280;3957;48.61947800;9.05303100;2023-03-31T03:15:11;95164.41;;;6.31;100.00
7824;BME280;3957;48.61947800;9.05303100;2023-03-31T03:17:25;95154.44;;;6.33;100.00
7824;BME280;3957;48.61947800;9.05303100;2023-03-31T03:18:26;95159.53;;;6.35;100.00
7824;BME280;3957;48.61947800;9.05303100;2023-03-31T03:19:27;95159.53;;;6.35;100.00
7824;BME280;3957;48.61947800;9.05303100;2023-03-31T03:20:27;95154.84;;;6.30;100.00
7824;BME280;3957;48.61947800;9.05303100;2023-03-31T03:21:28;95153.63;;;6.39;100.00
7824;BME280;3957;48.61947800;9.05303100;2023-03-31T03:22:29;95145.84;;;6.38;100.00
7824;BME280;3957;48.61947800;9.05303100;2023-03-31T03:23:29;95143.19;;;6.38;100.00
7824;BME280;3957;48.61947800;9.05303100;2023-03-31T03:24:30;95148.50;;;6.38;100.00
7824;BME280;3957;48.61947800;9.05303100;2023-03-31T03:25:33;95138.50;;;6.40;100.00
7824;BME280;3957;48.61947800;9.05303100;2023-03-31T03:26:34;95148.91;;;6.35;100.00
7824;BME280;3957;48.61947800;9.05303100;2023-03-31T03:27:35;95147.06;;;6.28;100.00
7824;BME280;3957;48.61947800;9.05303100;2023-03-31T03:28:35;95141.13;;;6.26;100.00
7824;BME280;3957;48.61947800;9.05303100;2023-03-31T03:29:36;95136.44;;;6.35;100.00
7824;BME280;3957;48.61947800;9.05303100;2023-03-31T03:30:36;95132.16;;;6.34;100.00
7824;BME280;3957;48.61947800;9.05303100;2023-03-31T03:31:36;95127.25;;;6.38;100.00
7824;BME280;3957;48.61947800;9.05303100;2023-03-31T03:32:37;95127.25;;;6.38;100.00
7824;BME280;3957;48.61947800;9.05303100;2023-03-31T03:33:38;95124.59;;;6.38;100.00
7824;BME280;3957;48.61947800;9.05303100;2023-03-31T03:34:38;95128.91;;;6.45;100.00
7824;BME280;3957;48.61947800;9.05303100;2023-03-31T03:35:39;95128.09;;;6.52;100.00
7824;BME280;3957;48.61947800;9.05303100;2023-03-31T03:36:39;95123.56;;;6.39;100.00
7824;BME280;3957;48.61947800;9.05303100;2023-03-31T03:37:40;95123.16;;;6.35;100.00
7824;BME280;3957;48.61947800;9.05303100;2023-03-31T03:38:40;95119.50;;;6.43;100.00
7824;BME280;3957;48.61947800;9.05303100;2023-03-31T03:39:40;95114.81;;;6.45;100.00
7824;BME280;3957;48.61947800;9.05303100;2023-03-31T03:40:41;95111.97;;;6.53;100.00
7824;BME280;3957;48.61947800;9.05303100;2023-03-31T03:41:41;95101.50;;;6.52;100.00
7824;BME280;3957;48.61947800;9.05303100;2023-03-31T03:42:41;95104.38;;;6.50;100.00
7824;BME280;3957;48.61947800;9.05303100;2023-03-31T03:43:42;95102.75;;;6.62;100.00
7824;BME280;3957;48.61947800;9.05303100;2023-03-31T03:44:42;95098.06;;;6.58;100.00
7824;BME280;3957;48.61947800;9.05303100;2023-03-31T03:45:47;95095.38;;;6.51;100.00
7824;BME280;3957;48.61947800;9.05303100;2023-03-31T03:46:47;95095.59;;;6.50;100.00
7824;BME280;3957;48.61947800;9.05303100;2023-03-31T03:47:48;95089.66;;;6.47;100.00
7824;BME280;3957;48.61947800;9.05303100;2023-03-31T03:48:48;95085.59;;;6.45;100.00
7824;BME280;3957;48.61947800;9.05303100;2023-03-31T03:49:48;95076.75;;;6.38;100.00
7824;BME280;3957;48.61947800;9.05303100;2023-03-31T03:50:49;95076.16;;;6.36;100.00
7824;BME280;3957;48.61947800;9.05303100;2023-03-31T03:51:49;95073.72;;;6.34;100.00
7824;BME280;3957;48.61947800;9.05303100;2023-03-31T03:52:50;95072.28;;;6.32;100.00
7824;BME280;3957;48.61947800;9.05303100;2023-03-31T03:53:51;95065.53;;;6.29;100.00
7824;BME280;3957;48.61947800;9.05303100;2023-03-31T03:54:51;95064.88;;;6.27;100.00
7824;BME280;3957;48.61947800;9.05303100;2023-03-31T03:55:51;95064.31;;;6.32;100.00
7824;BME280;3957;48.61947800;9.05303100;2023-03-31T03:56:52;95060.22;;;6.29;100.00
7824;BME280;3957;48.61947800;9.05303100;2023-03-31T03:57:52;95062.84;;;6.22;100.00
7824;BME280;3957;48.61947800;9.05303100;2023-03-31T03:58:52;95059.78;;;6.25;100.00
7824;BME280;3957;48.61947800;9.05303100;2023-03-31T03:59:53;95055.50;;;6.18;100.00
7824;BME280;3957;48.61947800;9.05303100;2023-03-31T04:00:53;95063.66;;;6.16;100.00
7824;BME280;3957;48.61947800;9.05303100;2023-03-31T04:01:53;95057.91;;;6.06;100.00
7824;BME280;3957;48.61947800;9.05303100;2023-03-31T04:02:54;95056.47;;;6.03;100.00
7824;BME280;3957;48.61947800;9.05303100;2023-03-31T04:03:54;95055.66;;;6.03;100.00
7824;BME280;3957;48.61947800;9.05303100;2023-03-31T04:04:55;95043.22;;;6.10;100.00
7824;BME280;3957;48.61947800;9.05303100;2023-03-31T04:05:55;95038.72;;;6.17;100.00
7824;BME280;3957;48.61947800;9.05303100;2023-03-31T04:06:56;95042.41;;;6.16;100.00
7824;BME280;3957;48.61947800;9.05303100;2023-03-31T04:07:56;95037.72;;;6.18;100.00
7824;BME280;3957;48.61947800;9.05303100;2023-03-31T04:08:56;95028.72;;;6.19;100.00
7824;BME280;3957;48.61947800;9.05303100;2023-03-31T04:09:57;95024.00;;;6.21;100.00
7824;BME280;3957;48.61947800;9.05303100;2023-03-31T04:10:57;95006.25;;;6.22;100.00
7824;BME280;3957;48.61947800;9.05303100;2023-03-31T04:11:57;94992.16;;;6.28;100.00
7824;BME280;3957;48.61947800;9.05303100;2023-03-31T04:12:58;94989.28;;;6.29;100.00
7824;BME280;3957;48.61947800;9.05303100;2023-03-31T04:13:58;94982.16;;;6.30;100.00
7824;BME280;3957;48.61947800;9.05303100;2023-03-31T04:14:59;94993.38;;;6.32;100.00
7824;BME280;3957;48.61947800;9.05303100;2023-03-31T04:15:59;94998.91;;;6.37;100.00
7824;BME280;3957;48.61947800;9.05303100;2023-03-31T04:16:59;94999.69;;;6.31;100.00
7824;BME280;3957;48.61947800;9.05303100;2023-03-31T04:18:01;95002.97;;;6.33;100.00
7824;BME280;3957;48.61947800;9.05303100;2023-03-31T04:19:02;94999.53;;;6.33;100.00
7824;BME280;3957;48.61947800;9.05303100;2023-03-31T04:20:07;95001.97;;;6.41;100.00
7824;BME280;3957;48.61947800;9.05303100;2023-03-31T04:21:10;94998.09;;;6.37;100.00
7824;BME280;3957;48.61947800;9.05303100;2023-03-31T04:22:11;94992.56;;;6.32;100.00
7824;BME280;3957;48.61947800;9.05303100;2023-03-31T04:23:14;94990.91;;;6.30;100.00
7824;BME280;3957;48.61947800;9.05303100;2023-03-31T04:24:15;94992.78;;;6.30;100.00
7824;BME280;3957;48.61947800;9.05303100;2023-03-31T04:25:21;94988.06;;;6.39;100.00
7824;BME280;3957;48.61947800;9.05303100;2023-03-31T04:26:21;94987.06;;;6.40;100.00
7824;BME280;3957;48.61947800;9.05303100;2023-03-31T04:27:25;94990.72;;;6.45;100.00
7824;BME280;3957;48.61947800;9.05303100;2023-03-31T04:28:26;94992.75;;;6.43;100.00
7824;BME280;3957;48.61947800;9.05303100;2023-03-31T04:29:33;94995.03;;;6.40;100.00
7824;BME280;3957;48.61947800;9.05303100;2023-03-31T04:30:36;94991.75;;;6.44;100.00
7824;BME280;3957;48.61947800;9.05303100;2023-03-31T04:31:39;94989.28;;;6.50;100.00
7824;BME280;3957;48.61947800;9.05303100;2023-03-31T04:32:41;94988.28;;;6.44;100.00
7824;BME280;3957;48.61947800;9.05303100;2023-03-31T04:33:42;94993.38;;;6.52;100.00
7824;BME280;3957;48.61947800;9.05303100;2023-03-31T04:34:45;94989.88;;;6.58;100.00
7824;BME280;3957;48.61947800;9.05303100;2023-03-31T04:35:46;94987.06;;;6.53;100.00
7824;BME280;3957;48.61947800;9.05303100;2023-03-31T04:36:49;94989.09;;;6.51;100.00
7824;BME280;3957;48.61947800;9.05303100;2023-03-31T04:37:51;94981.50;;;6.61;100.00
7824;BME280;3957;48.61947800;9.05303100;2023-03-31T04:38:51;94983.97;;;6.63;100.00
7824;BME280;3957;48.61947800;9.05303100;2023-03-31T04:39:53;94987.66;;;6.62;100.00
7824;BME280;3957;48.61947800;9.05303100;2023-03-31T04:40:54;94981.09;;;6.64;100.00
7824;BME280;3957;48.61947800;9.05303100;2023-03-31T04:41:56;94974.94;;;6.64;100.00
7824;BME280;3957;48.61947800;9.05303100;2023-03-31T04:42:57;94978.84;;;6.61;100.00
7824;BME280;3957;48.61947800;9.05303100;2023-03-31T04:43:57;94983.13;;;6.62;100.00
7824;BME280;3957;48.61947800;9.05303100;2023-03-31T04:44:57;94978.44;;;6.58;100.00
7824;BME280;3957;48.61947800;9.05303100;2023-03-31T04:45:58;94974.16;;;6.57;100.00
7824;BME280;3957;48.61947800;9.05303100;2023-03-31T04:46:58;94971.69;;;6.62;100.00
7824;BME280;3957;48.61947800;9.05303100;2023-03-31T04:48:02;94978.63;;;6.70;100.00
7824;BME280;3957;48.61947800;9.05303100;2023-03-31T04:49:02;94973.72;;;6.73;100.00
7824;BME280;3957;48.61947800;9.05303100;2023-03-31T04:50:05;94973.31;;;6.70;100.00
7824;BME280;3957;48.61947800;9.05303100;2023-03-31T04:51:06;94977.63;;;6.64;100.00
7824;BME280;3957;48.61947800;9.05303100;2023-03-31T04:52:06;94984.16;;;6.61;100.00
7824;BME280;3957;48.61947800;9.05303100;2023-03-31T04:53:07;94982.13;;;6.70;100.00
7824;BME280;3957;48.61947800;9.05303100;2023-03-31T04:54:08;94983.13;;;6.76;100.00
7824;BME280;3957;48.61947800;9.05303100;2023-03-31T04:55:08;94977.19;;;6.80;100.00
7824;BME280;3957;48.61947800;9.05303100;2023-03-31T04:56:09;94977.81;;;6.76;100.00
7824;BME280;3957;48.61947800;9.05303100;2023-03-31T04:57:09;94974.31;;;6.82;100.00
7824;BME280;3957;48.61947800;9.05303100;2023-03-31T04:58:10;94975.16;;;6.76;100.00
7824;BME280;3957;48.61947800;9.05303100;2023-03-31T04:59:10;94974.31;;;6.82;100.00
7824;BME280;3957;48.61947800;9.05303100;2023-03-31T05:00:11;94975.31;;;6.94;100.00
7824;BME280;3957;48.61947800;9.05303100;2023-03-31T05:01:12;94978.16;;;7.00;100.00
7824;BME280;3957;48.61947800;9.05303100;2023-03-31T05:02:17;94970.19;;;7.00;100.00
7824;BME280;3957;48.61947800;9.05303100;2023-03-31T05:03:22;94962.00;;;7.01;100.00
7824;BME280;3957;48.61947800;9.05303100;2023-03-31T05:04:23;94963.84;;;6.94;100.00
7824;BME280;3957;48.61947800;9.05303100;2023-03-31T05:05:23;94961.63;;;6.91;100.00
7824;BME280;3957;48.61947800;9.05303100;2023-03-31T05:06:24;94959.34;;;7.01;100.00
7824;BME280;3957;48.61947800;9.05303100;2023-03-31T05:07:24;94950.56;;;6.94;100.00
7824;BME280;3957;48.61947800;9.05303100;2023-03-31T05:08:25;94956.31;;;6.91;100.00
7824;BME280;3957;48.61947800;9.05303100;2023-03-31T05:09:26;94947.31;;;6.92;100.00
7824;BME280;3957;48.61947800;9.05303100;2023-03-31T05:10:27;94943.44;;;6.88;100.00
7824;BME280;3957;48.61947800;9.05303100;2023-03-31T05:11:27;94951.19;;;6.89;100.00
7824;BME280;3957;48.61947800;9.05303100;2023-03-31T05:12:28;94956.31;;;6.84;100.00
7824;BME280;3957;48.61947800;9.05303100;2023-03-31T05:13:28;94968.75;;;6.90;100.00
7824;BME280;3957;48.61947800;9.05303100;2023-03-31T05:14:29;94975.94;;;6.83;100.00
7824;BME280;3957;48.61947800;9.05303100;2023-03-31T05:15:29;94979.03;;;6.87;100.00
7824;BME280;3957;48.61947800;9.05303100;2023-03-31T05:16:30;94988.03;;;6.79;100.00
7824;BME280;3957;48.61947800;9.05303100;2023-03-31T05:17:31;94989.88;;;6.78;100.00
7824;BME280;3957;48.61947800;9.05303100;2023-03-31T05:18:32;94983.34;;;6.81;100.00
7824;BME280;3957;48.61947800;9.05303100;2023-03-31T05:19:32;94984.13;;;6.81;100.00
7824;BME280;3957;48.61947800;9.05303100;2023-03-31T05:20:33;94993.53;;;6.84;100.00
7824;BME280;3957;48.61947800;9.05303100;2023-03-31T05:21:33;94995.97;;;6.92;100.00
7824;BME280;3957;48.61947800;9.05303100;2023-03-31T05:22:35;94997.44;;;6.88;100.00
7824;BME280;3957;48.61947800;9.05303100;2023-03-31T05:23:35;95006.22;;;6.82;100.00
7824;BME280;3957;48.61947800;9.05303100;2023-03-31T05:24:36;95007.88;;;6.76;100.00
7824;BME280;3957;48.61947800;9.05303100;2023-03-31T05:25:36;95006.44;;;6.74;100.00
7824;BME280;3957;48.61947800;9.05303100;2023-03-31T05:26:37;95007.69;;;6.71;100.00
7824;BME280;3957;48.61947800;9.05303100;2023-03-31T05:27:37;95006.44;;;6.74;100.00
7824;BME280;3957;48.61947800;9.05303100;2023-03-31T05:28:38;95001.31;;;6.72;100.00
7824;BME280;3957;48.61947800;9.05303100;2023-03-31T05:29:39;94983.72;;;6.78;100.00
7824;BME280;3957;48.61947800;9.05303100;2023-03-31T05:30:39;94973.72;;;6.67;100.00
7824;BME280;3957;48.61947800;9.05303100;2023-03-31T05:31:39;94970.88;;;6.61;100.00
7824;BME280;3957;48.61947800;9.05303100;2023-03-31T05:32:41;94970.69;;;6.56;100.00
7824;BME280;3957;48.61947800;9.05303100;2023-03-31T05:33:41;94963.72;;;6.55;100.00
7824;BME280;3957;48.61947800;9.05303100;2023-03-31T05:34:41;94971.50;;;6.57;100.00
7824;BME280;3957;48.61947800;9.05303100;2023-03-31T05:35:43;94980.91;;;6.59;100.00
7824;BME280;3957;48.61947800;9.05303100;2023-03-31T05:36:43;94988.25;;;6.71;100.00
7824;BME280;3957;48.61947800;9.05303100;2023-03-31T05:37:43;94984.78;;;6.63;100.00
7824;BME280;3957;48.61947800;9.05303100;2023-03-31T05:38:44;94985.19;;;6.60;100.00
7824;BME280;3957;48.61947800;9.05303100;2023-03-31T05:39:45;94985.41;;;6.59;100.00
7824;BME280;3957;48.61947800;9.05303100;2023-03-31T05:40:45;94973.56;;;6.55;100.00
7824;BME280;3957;48.61947800;9.05303100;2023-03-31T05:41:45;94960.44;;;6.60;100.00
7824;BME280;3957;48.61947800;9.05303100;2023-03-31T05:42:46;94960.06;;;6.56;100.00
7824;BME280;3957;48.61947800;9.05303100;2023-03-31T05:43:46;94967.41;;;6.61;100.00